Weather at Oseberg A Platform

Public forecast

Using degrees Celsius for public forecast. Weather courtesy of forecast.io.

Current aviation weather report (METAR) for Oseberg A Platform

2024/02/24 15:20 (retrieved 16 minutes ago)

ENOA 241520Z 22021KT 9999 VCSH FEW015CB SCT030 BKN170 05/02 Q0991 W///S4

Aviation forecast (TAF) for Oseberg A Platform

2024/02/24 15:36 (retrieved 0 seconds ago)

TAF TAF ENOA 241400Z 2415/2515 23022KT 9999 FEW015TCU BKN030 TEMPO 2415/2515 SHRA BKN014CB